CDT,Max TemperatureF,Mean TemperatureF,Min TemperatureF,Max Dew PointF,MeanDew PointF,Min DewpointF,Max Humidity, Mean Humidity, Min Humidity, Max Sea Level PressureIn, Mean Sea Level PressureIn, Min Sea Level PressureIn, Max VisibilityMiles, Mean VisibilityMiles, Min VisibilityMiles, Max Wind SpeedMPH, Mean Wind SpeedMPH, Max Gust SpeedMPH,PrecipitationIn, CloudCover, Events, WindDirDegrees
2010-10-1,70,54,37,54,44,37,100,89,41,30.15,30.09,30.01,10,8,1,14,3,23,0.01,2,Fog-Rain,340
2010-10-2,52,42,31,45,38,31,100,83,52,30.42,30.31,30.16,10,10,10,14,6,23,0.00,2,,348
2010-10-3,57,40,24,41,29,25,100,91,41,30.51,30.46,30.40,10,5,0,8,4,,0.00,0,Fog,282
2010-10-4,62,44,26,43,30,27,100,90,36,30.47,30.41,30.34,10,5,0,8,0,,0.00,0,Fog,144
2010-10-5,68,48,28,46,33,28,100,91,35,30.42,30.35,30.25,10,5,1,7,1,,0.00,0,Fog,159
2010-10-6,74,55,35,54,45,36,100,75,41,30.23,30.09,30.01,10,10,8,13,5,18,0.00,0,Fog,293
2010-10-7,73,56,39,47,42,36,100,84,36,30.15,30.09,30.06,10,5,1,12,4,,0.00,0,,282
2010-10-8,81,58,35,54,39,36,100,91,32,30.07,30.03,29.92,10,4,1,14,1,20,0.00,0,,228
2010-10-9,79,64,49,61,56,49,100,80,50,30.00,29.96,29.92,10,10,6,9,3,,0.00,0,,101
2010-10-10,81,63,46,62,50,46,100,88,33,29.96,29.92,29.82,10,5,1,7,4,,0.00,0,,129
2010-10-11,77,60,42,57,47,43,100,95,47,29.88,29.84,29.81,10,4,0,7,1,,0.00,0,Fog,333
2010-10-12,78,60,42,57,50,43,100,90,47,30.04,29.91,29.89,10,5,0,13,4,,0.00,1,Fog,97
2010-10-13,64,50,35,51,38,32,100,70,30,30.17,30.14,30.06,10,10,10,16,8,23,0.00,2,,299
2010-10-14,66,48,31,43,34,30,100,63,30,30.15,29.97,29.79,10,10,10,20,5,25,0.00,2,,276
2010-10-15,59,46,34,43,38,32,99,75,49,30.14,30.08,29.94,10,9,4,9,5,,0.00,1,,297
2010-10-16,68,50,33,44,38,30,99,63,41,30.09,30.00,29.93,10,9,7,16,8,23,0.00,0,,249
2010-10-17,60,46,33,42,32,25,93,61,25,30.19,30.13,30.09,10,10,10,10,5,,0.00,3,Rain,290
2010-10-18,55,44,30,42,35,28,100,72,41,30.14,30.08,30.02,10,10,10,12,5,,0.00,3,,307
2010-10-19,59,43,27,41,34,27,100,78,42,30.03,29.95,29.81,10,10,10,15,3,21,0.00,3,,259
2010-10-20,64,48,32,41,36,31,100,61,34,29.82,29.70,29.60,10,8,2,17,7,23,0.00,4,Rain,291
2010-10-21,53,40,26,34,30,27,100,77,38,30.07,29.93,29.83,10,6,2,20,9,24,0.00,1,,292
2010-10-22,62,47,32,32,31,28,87,48,30,30.12,30.06,29.96,10,9,2,12,7,17,0.00,0,,178
2010-10-23,60,60,57,61,59,57,100,98,94,29.85,29.83,29.81,7,6,2,7,4,,0.00,8,,193
2010-10-24,62,60,59,63,60,57,100,94,82,29.68,29.63,29.58,10,9,7,9,5,,0.00,8,Rain,184
2010-10-25,62,60,57,61,58,55,100,93,77,29.48,29.36,29.18,10,9,4,13,8,,0.00,8,Rain,137
2010-10-26,64,53,44,63,47,34,100,87,58,29.15,28.89,28.68,10,9,2,28,19,48,0.19,8,Rain,215
2010-10-27,47,43,39,39,32,27,100,66,49,29.70,29.37,29.16,10,10,10,36,26,48,0.00,8,,245
2010-10-28,43,35,27,39,33,26,100,79,57,30.32,29.97,29.70,10,10,10,24,18,32,0.00,7,,288
2010-10-29,41,30,23,28,25,23,100,90,53,30.35,30.33,30.28,10,10,10,7,5,,0.00,0,,269
2010-10-30,60,48,31,37,33,25,90,59,39,30.28,29.88,29.73,10,10,10,16,8,22,0.00,2,,306
2010-10-31,50,36,23,32,27,23,100,80,38,30.37,30.23,30.09,10,10,5,6,4,,0.00,1,,296